Terminal Aerodrome Forecast
Issued by NWS Cleveland, OH

Current Version | Previous Version | Text Only | Print | Product List | Glossary On
Versions: 1 2 3 4 5 6 7 8 9 10 11 12 13 14 15 16 17
000
FTUS41 KCLE 031200 AAA
TAFCAK
TAF AMD
KCAK 031243Z 0313/0412 13009KT P6SM OVC060
     FM031430 14010KT 4SM -FZRASNPL BR SCT015 OVC035
     FM031900 19012KT 2SM -RA BR OVC006 WS020/22040KT
     FM040200 22014G20KT 4SM -SHRA BR OVC006
     FM040900 28012KT 5SM -SN BR OVC012=

USA.gov is the U.S. government's official web portal to all federal, state and local government web resources and services.